createdAt,value
2024-05-09T00:02:13.811Z,99725.00
2024-05-09T00:04:59.625Z,99719.91
2024-05-09T00:07:45.384Z,99719.91
2024-05-09T00:10:36.372Z,99724.84
2024-05-09T00:13:23.985Z,99728.19
2024-05-09T00:16:09.456Z,99725.00
2024-05-09T00:18:55.535Z,99733.16
2024-05-09T00:21:43.275Z,99730.97
2024-05-09T00:24:29.241Z,99738.75
2024-05-09T00:27:15.967Z,99733.25
2024-05-09T00:30:01.571Z,99744.59
2024-05-09T00:32:47.266Z,99734.56
2024-05-09T00:35:33.173Z,99736.00
2024-05-09T00:38:19.166Z,99737.63
2024-05-09T00:41:05.073Z,99740.06
2024-05-09T00:43:51.062Z,99736.56
2024-05-09T00:46:36.969Z,99745.66
2024-05-09T00:49:23.507Z,99734.03
2024-05-09T00:52:10.430Z,99742.31
2024-05-09T00:54:57.196Z,99745.69
2024-05-09T00:57:44.250Z,99739.19
2024-05-09T01:00:37.871Z,99745.91
2024-05-09T01:03:26.158Z,99744.53
2024-05-09T01:06:12.385Z,99736.88
2024-05-09T01:08:57.873Z,99742.19
2024-05-09T01:11:43.638Z,99738.66
2024-05-09T01:14:29.270Z,99736.91
2024-05-09T01:17:15.188Z,99741.06
2024-05-09T01:20:01.172Z,99746.00
2024-05-09T01:22:48.089Z,99741.84
2024-05-09T01:25:33.814Z,99732.94
2024-05-09T01:28:19.362Z,99724.88
2024-05-09T01:31:05.127Z,99731.00
2024-05-09T01:33:51.155Z,99734.34
2024-05-09T01:36:37.062Z,99731.19
2024-05-09T01:39:23.008Z,99737.72
2024-05-09T01:42:09.104Z,99734.53
2024-05-09T01:44:54.659Z,99748.19
2024-05-09T01:47:40.211Z,99753.13
2024-05-09T01:50:37.126Z,99738.47
2024-05-09T01:53:25.956Z,99749.97
2024-05-09T01:56:11.666Z,99754.31
2024-05-09T01:58:57.738Z,99761.78
2024-05-09T02:01:56.503Z,99763.59
2024-05-09T02:04:47.102Z,99770.06
2024-05-09T02:07:35.872Z,99762.75
2024-05-09T02:10:26.494Z,99763.56
2024-05-09T02:13:18.294Z,99767.13
2024-05-09T02:16:04.333Z,99779.78
2024-05-09T02:18:50.308Z,99778.22
2024-05-09T02:21:36.815Z,99783.34
2024-05-09T02:24:22.181Z,99783.75
2024-05-09T02:27:07.535Z,99778.38
2024-05-09T02:29:52.918Z,99776.00
2024-05-09T02:32:38.705Z,99786.09
2024-05-09T02:35:24.410Z,99783.50
2024-05-09T02:38:10.154Z,99788.66
2024-05-09T02:40:56.559Z,99793.41
2024-05-09T02:43:42.209Z,99794.81
2024-05-09T02:46:28.171Z,99793.59
2024-05-09T02:49:14.222Z,99794.41
2024-05-09T02:51:59.909Z,99799.94
2024-05-09T02:54:45.842Z,99793.81
2024-05-09T02:57:31.466Z,99800.91
2024-05-09T03:00:22.789Z,99803.53
2024-05-09T03:03:14.479Z,99796.19
2024-05-09T03:06:02.468Z,99798.38
2024-05-09T03:08:48.611Z,99801.13
2024-05-09T03:11:34.553Z,99801.31
2024-05-09T03:14:20.378Z,99805.63
2024-05-09T03:17:05.872Z,99808.41
2024-05-09T03:19:52.517Z,99816.44
2024-05-09T03:22:38.564Z,99816.41
2024-05-09T03:25:24.190Z,99826.25
2024-05-09T03:28:11.462Z,99824.03
2024-05-09T03:30:57.369Z,99828.78
2024-05-09T03:33:42.862Z,99825.91
2024-05-09T03:36:28.719Z,99821.19
2024-05-09T03:39:14.203Z,99828.22
2024-05-09T03:42:00.124Z,99822.19
2024-05-09T03:44:45.990Z,99821.94
2024-05-09T03:47:35.485Z,99834.78
2024-05-09T03:50:29.439Z,99831.59
2024-05-09T03:53:19.479Z,99843.31
2024-05-09T03:56:08.380Z,99839.69
2024-05-09T03:58:55.588Z,99844.31
2024-05-09T04:01:41.947Z,99845.00
2024-05-09T04:04:27.872Z,99845.28
2024-05-09T04:07:13.580Z,99848.03
2024-05-09T04:09:59.262Z,99848.59
2024-05-09T04:12:47.848Z,99855.91
2024-05-09T04:15:33.398Z,99846.09
2024-05-09T04:18:19.692Z,99848.94
2024-05-09T04:21:06.568Z,99857.50
2024-05-09T04:23:52.161Z,99850.41
2024-05-09T04:26:37.698Z,99851.41
2024-05-09T04:29:23.603Z,99844.09
2024-05-09T04:32:09.445Z,99847.75
2024-05-09T04:34:56.426Z,99861.97
2024-05-09T04:37:42.467Z,99854.75
2024-05-09T04:40:33.366Z,99865.13
2024-05-09T04:43:25.088Z,99866.25
2024-05-09T04:46:11.125Z,99875.78
2024-05-09T04:48:57.272Z,99865.28
2024-05-09T04:51:43.053Z,99854.25
2024-05-09T04:54:35.819Z,99867.53
2024-05-09T04:57:22.414Z,99871.56
2024-05-09T05:00:14.771Z,99873.31
2024-05-09T05:03:14.487Z,99876.13
2024-05-09T05:06:02.569Z,99879.09
2024-05-09T05:08:48.390Z,99875.75
2024-05-09T05:11:34.109Z,99876.66
2024-05-09T05:14:20.690Z,99866.28
2024-05-09T05:20:46.333Z,99863.84
2024-05-09T05:23:41.959Z,99848.28
2024-05-09T05:26:34.769Z,99864.41
2024-05-09T05:30:35.007Z,99870.69
2024-05-09T05:33:25.591Z,99864.88
2024-05-09T05:42:24.763Z,99867.47
2024-05-09T05:45:12.710Z,99879.75
2024-05-09T05:48:20.784Z,99866.94
2024-05-09T05:51:10.629Z,99887.81
2024-05-09T05:54:11.518Z,99876.69
2024-05-09T05:57:34.178Z,99894.03
2024-05-09T06:00:29.725Z,99889.22
2024-05-09T06:03:30.245Z,99894.69
2024-05-09T06:11:08.302Z,99876.41
2024-05-09T06:14:08.441Z,99890.00
2024-05-09T06:17:02.847Z,99886.78
2024-05-09T06:19:57.207Z,99886.78
2024-05-09T06:30:21.215Z,99879.03
2024-05-09T06:33:31.492Z,99883.78
2024-05-09T06:36:34.963Z,99867.22
2024-05-09T06:39:20.868Z,99887.47
2024-05-09T06:42:08.224Z,99869.06
2024-05-09T06:44:53.949Z,99873.44
2024-05-09T06:48:05.955Z,99878.00
2024-05-09T06:50:54.810Z,99891.31
2024-05-09T06:53:49.803Z,99879.34
2024-05-09T06:56:38.111Z,99891.31
2024-05-09T06:59:23.722Z,99894.06
2024-05-09T07:02:09.884Z,99902.88
2024-05-09T07:04:55.763Z,99911.31
2024-05-09T07:07:45.132Z,99910.09
2024-05-09T07:10:35.045Z,99910.75
2024-05-09T07:13:38.462Z,99903.97
2024-05-09T07:20:32.454Z,99874.22
2024-05-09T07:23:30.627Z,99873.25
2024-05-09T07:26:55.008Z,99894.34
2024-05-09T07:35:00.333Z,99892.53
2024-05-09T07:38:27.496Z,99882.59
2024-05-09T07:41:14.804Z,99887.66
2024-05-09T07:44:06.071Z,99899.19
2024-05-09T07:53:38.035Z,99907.53
2024-05-09T07:56:41.199Z,99885.09
2024-05-09T07:59:42.124Z,99887.91
2024-05-09T08:02:41.374Z,99893.34
2024-05-09T08:06:10.742Z,99896.84
2024-05-09T08:09:08.231Z,99875.09
2024-05-09T08:12:06.604Z,99893.97
2024-05-09T08:15:33.201Z,99884.69
2024-05-09T08:28:16.646Z,99862.84
2024-05-09T08:39:12.926Z,99861.13
2024-05-09T08:46:52.246Z,99865.22
2024-05-09T08:50:10.972Z,99882.28
2024-05-09T08:53:03.687Z,99866.06
2024-05-09T08:56:15.522Z,99863.59
2024-05-09T08:59:20.284Z,99858.88
2024-05-09T09:02:21.307Z,99853.72
2024-05-09T09:05:42.016Z,99859.69
2024-05-09T09:08:56.075Z,99877.91
2024-05-09T09:11:55.444Z,99852.59
2024-05-09T09:15:04.255Z,99868.16
2024-05-09T09:18:12.610Z,99852.88
2024-05-09T09:21:44.411Z,99853.97
2024-05-09T09:25:50.817Z,99842.94
2024-05-09T09:28:29.993Z,99841.16
2024-05-09T09:31:21.353Z,99831.50
2024-05-09T09:35:05.741Z,99828.56
2024-05-09T09:38:02.915Z,99839.84
2024-05-09T09:40:50.767Z,99837.03
2024-05-09T09:43:43.271Z,99849.59
2024-05-09T09:46:42.590Z,99827.41
2024-05-09T09:49:37.591Z,99834.38
2024-05-09T09:52:47.059Z,99839.28
2024-05-09T09:55:50.778Z,99816.50
2024-05-09T09:58:53.386Z,99826.25
2024-05-09T10:02:09.795Z,99823.84
2024-05-09T10:05:08.370Z,99830.88
2024-05-09T10:08:00.128Z,99838.94
2024-05-09T10:10:50.238Z,99837.34
2024-05-09T10:13:39.131Z,99816.53
2024-05-09T10:16:40.218Z,99841.03
2024-05-09T10:19:49.355Z,99808.72
2024-05-09T10:22:55.592Z,99840.63
2024-05-09T10:29:20.374Z,99815.53
2024-05-09T10:35:54.709Z,99799.88
2024-05-09T10:38:44.746Z,99818.84
2024-05-09T10:42:10.567Z,99829.47
2024-05-09T10:45:02.674Z,99805.72
2024-05-09T10:47:56.695Z,99803.25
2024-05-09T10:50:44.198Z,99803.28
2024-05-09T10:53:55.658Z,99818.53
2024-05-09T10:57:14.855Z,99819.78
2024-05-09T11:00:27.464Z,99796.34
2024-05-09T11:04:02.197Z,99812.19
2024-05-09T11:06:52.213Z,99812.09
2024-05-09T11:10:09.857Z,99810.34
2024-05-09T11:13:00.932Z,99784.66
2024-05-09T11:15:58.245Z,99790.25
2024-05-09T11:19:12.449Z,99790.47
2024-05-09T11:22:05.094Z,99798.13
2024-05-09T11:25:05.205Z,99795.31
2024-05-09T11:27:59.457Z,99796.09
2024-05-09T11:30:45.841Z,99798.84
2024-05-09T11:33:31.721Z,99787.88
2024-05-09T11:36:25.703Z,99780.69
2024-05-09T11:39:16.039Z,99769.84
2024-05-09T11:42:09.681Z,99776.63
2024-05-09T11:44:55.363Z,99775.69
2024-05-09T11:47:47.538Z,99778.72
2024-05-09T11:50:35.879Z,99781.13
2024-05-09T11:53:21.675Z,99775.84
2024-05-09T11:56:13.347Z,99762.84
2024-05-09T11:59:01.953Z,99766.25
2024-05-09T12:01:48.266Z,99777.19
2024-05-09T12:04:39.956Z,99776.03
2024-05-09T12:07:27.618Z,99776.13
2024-05-09T12:10:19.866Z,99773.66
2024-05-09T12:13:08.504Z,99772.25
2024-05-09T12:15:54.718Z,99752.09
2024-05-09T12:18:40.442Z,99755.50
2024-05-09T12:21:26.195Z,99750.50
2024-05-09T12:24:16.897Z,99747.63
2024-05-09T12:27:22.562Z,99738.50
2024-05-09T12:30:11.551Z,99747.41
2024-05-09T12:33:00.099Z,99747.94
2024-05-09T12:35:52.563Z,99743.97
2024-05-09T12:38:46.930Z,99753.13
2024-05-09T12:41:32.646Z,99736.72
2024-05-09T12:44:18.297Z,99743.13
2024-05-09T12:47:03.869Z,99737.94
2024-05-09T12:49:59.654Z,99719.00
2024-05-09T12:52:45.171Z,99724.00
2024-05-09T12:55:37.286Z,99722.31
2024-05-09T12:58:29.915Z,99713.34
2024-05-09T13:01:15.915Z,99724.72
2024-05-09T13:04:02.286Z,99714.56
2024-05-09T13:06:49.531Z,99712.56
2024-05-09T13:09:35.453Z,99711.63
2024-05-09T13:12:24.300Z,99709.97
2024-05-09T13:15:10.319Z,99707.16
2024-05-09T13:18:00.510Z,99705.59
2024-05-09T13:20:48.687Z,99701.28
2024-05-09T13:23:34.177Z,99702.25
2024-05-09T13:26:19.512Z,99704.00
2024-05-09T13:29:05.198Z,99703.91
2024-05-09T13:31:50.926Z,99698.97
2024-05-09T13:34:36.668Z,99699.53
2024-05-09T13:37:22.563Z,99682.81
2024-05-09T13:40:12.018Z,99690.06
2024-05-09T13:43:00.028Z,99694.81
2024-05-09T13:45:45.822Z,99692.22
2024-05-09T13:48:32.023Z,99686.28
2024-05-09T13:51:17.706Z,99676.25
2024-05-09T13:54:03.205Z,99669.28
2024-05-09T13:56:48.812Z,99671.56
2024-05-09T13:59:34.325Z,99668.22
2024-05-09T14:02:20.000Z,99668.44
2024-05-09T14:05:06.222Z,99664.81
2024-05-09T14:07:52.176Z,99671.13
2024-05-09T14:10:44.486Z,99656.91
2024-05-09T14:13:30.618Z,99649.75
2024-05-09T14:16:16.444Z,99657.28
2024-05-09T14:19:02.653Z,99649.50
2024-05-09T14:21:48.597Z,99646.34
2024-05-09T14:24:34.457Z,99656.72
2024-05-09T14:27:20.260Z,99647.63
2024-05-09T14:30:11.783Z,99650.06
2024-05-09T14:33:00.654Z,99646.66
2024-05-09T14:35:46.446Z,99645.19
2024-05-09T14:38:32.121Z,99639.78
2024-05-09T14:41:17.737Z,99636.44
2024-05-09T14:44:03.261Z,99639.66
2024-05-09T14:46:49.146Z,99638.22
2024-05-09T14:49:35.082Z,99634.09
2024-05-09T14:52:20.972Z,99624.97
2024-05-09T14:55:08.556Z,99631.91
2024-05-09T14:57:55.733Z,99626.53
2024-05-09T15:00:46.611Z,99636.09
2024-05-09T15:03:35.929Z,99635.78
2024-05-09T15:06:21.950Z,99619.63
2024-05-09T15:09:08.320Z,99623.31
2024-05-09T15:11:54.116Z,99621.84
2024-05-09T15:14:40.050Z,99614.13
2024-05-09T15:17:25.642Z,99621.84
2024-05-09T15:20:16.813Z,99619.84
2024-05-09T15:23:03.548Z,99619.91
2024-05-09T15:25:49.673Z,99614.47
2024-05-09T15:28:35.176Z,99602.72
2024-05-09T15:31:20.795Z,99593.25
2024-05-09T15:34:08.530Z,99592.84
2024-05-09T15:36:54.517Z,99602.41
2024-05-09T15:39:40.601Z,99594.84
2024-05-09T15:42:26.480Z,99594.50
2024-05-09T15:45:11.975Z,99599.50
2024-05-09T15:47:58.566Z,99600.00
2024-05-09T15:50:45.095Z,99590.00
2024-05-09T15:53:30.678Z,99604.47
2024-05-09T15:56:16.860Z,99592.56
2024-05-09T15:59:02.518Z,99591.28
2024-05-09T16:01:48.049Z,99592.88
2024-05-09T16:04:34.167Z,99592.78
2024-05-09T16:07:20.187Z,99588.94
2024-05-09T16:10:07.117Z,99576.28
2024-05-09T16:12:53.273Z,99591.41
2024-05-09T16:15:38.741Z,99586.91
2024-05-09T16:18:25.122Z,99594.81
2024-05-09T16:21:11.199Z,99594.19
2024-05-09T16:23:56.596Z,99591.59
2024-05-09T16:26:43.005Z,99592.75
2024-05-09T16:29:28.543Z,99589.66
2024-05-09T16:32:14.214Z,99589.53
2024-05-09T16:34:59.995Z,99575.22
2024-05-09T16:37:46.045Z,99593.47
2024-05-09T16:40:38.368Z,99585.72
2024-05-09T16:43:26.624Z,99580.00
2024-05-09T16:46:12.733Z,99587.25
2024-05-09T16:48:58.352Z,99582.38
2024-05-09T16:51:44.501Z,99581.03
2024-05-09T16:54:30.422Z,99578.97
2024-05-09T16:57:16.003Z,99579.38
2024-05-09T17:00:01.390Z,99571.16
2024-05-09T17:02:47.081Z,99588.53
2024-05-09T17:05:33.402Z,99577.03
2024-05-09T17:08:20.119Z,99564.53
2024-05-09T17:11:05.825Z,99583.94
2024-05-09T17:13:51.635Z,99586.94
2024-05-09T17:16:37.355Z,99581.69
2024-05-09T17:19:23.000Z,99581.00
2024-05-09T17:22:09.314Z,99586.84
2024-05-09T17:24:54.951Z,99588.50
2024-05-09T17:27:40.826Z,99570.22
2024-05-09T17:30:32.550Z,99583.25
2024-05-09T17:33:22.511Z,99579.88
2024-05-09T17:36:08.353Z,99578.97
2024-05-09T17:38:53.899Z,99578.88
2024-05-09T17:41:39.842Z,99583.41
2024-05-09T17:44:25.501Z,99583.53
2024-05-09T17:47:11.285Z,99583.81
2024-05-09T17:49:56.666Z,99585.91
2024-05-09T17:52:42.819Z,99587.81
2024-05-09T17:55:29.014Z,99588.63
2024-05-09T17:58:15.050Z,99581.63
2024-05-09T18:01:01.069Z,99589.81
2024-05-09T18:03:48.751Z,99596.09
2024-05-09T18:06:34.406Z,99595.13
2024-05-09T18:09:21.109Z,99598.28
2024-05-09T18:12:07.075Z,99598.06
2024-05-09T18:14:53.096Z,99599.72
2024-05-09T18:17:39.703Z,99595.66
2024-05-09T18:20:36.077Z,99607.50
2024-05-09T18:23:26.881Z,99608.06
2024-05-09T18:26:12.613Z,99612.59
2024-05-09T18:28:58.425Z,99610.81
2024-05-09T18:31:43.944Z,99610.50
2024-05-09T18:34:29.550Z,99613.09
2024-05-09T18:37:15.334Z,99613.47
2024-05-09T18:40:00.750Z,99602.41
2024-05-09T18:42:46.372Z,99618.47
2024-05-09T18:45:32.480Z,99611.78
2024-05-09T18:48:19.120Z,99624.38
2024-05-09T18:51:07.788Z,99615.53
2024-05-09T18:53:55.306Z,99619.63
2024-05-09T18:56:41.358Z,99632.91
2024-05-09T18:59:27.137Z,99634.72
2024-05-09T19:02:13.613Z,99626.28
2024-05-09T19:04:59.212Z,99628.19
2024-05-09T19:07:44.953Z,99626.38
2024-05-09T19:10:34.625Z,99620.31
2024-05-09T19:13:21.410Z,99620.22
2024-05-09T19:16:07.669Z,99634.97
2024-05-09T19:18:54.067Z,99628.00
2024-05-09T19:21:42.595Z,99632.38
2024-05-09T19:24:28.176Z,99632.97
2024-05-09T19:27:14.011Z,99629.25
2024-05-09T19:30:00.088Z,99643.31
2024-05-09T19:32:46.315Z,99640.00
2024-05-09T19:35:32.551Z,99633.72
2024-05-09T19:38:18.198Z,99633.38
2024-05-09T19:41:03.790Z,99638.28
2024-05-09T19:43:49.819Z,99637.97
2024-05-09T19:46:35.747Z,99647.06
2024-05-09T19:49:21.887Z,99632.09
2024-05-09T19:52:07.725Z,99644.00
2024-05-09T19:54:53.419Z,99631.00
2024-05-09T19:57:42.020Z,99635.81
2024-05-09T20:00:34.730Z,99638.28
2024-05-09T20:03:21.824Z,99642.00
2024-05-09T20:06:07.834Z,99651.34
2024-05-09T20:08:57.262Z,99647.63
2024-05-09T20:11:43.070Z,99657.28
2024-05-09T20:14:28.713Z,99656.16
2024-05-09T20:17:14.419Z,99655.72
2024-05-09T20:20:00.704Z,99659.06
2024-05-09T20:22:46.391Z,99663.06
2024-05-09T20:25:32.251Z,99656.00
2024-05-09T20:28:18.218Z,99659.72
2024-05-09T20:31:03.887Z,99653.19
2024-05-09T20:33:49.726Z,99657.00
2024-05-09T20:36:35.519Z,99657.97
2024-05-09T20:39:26.054Z,99660.44
2024-05-09T20:42:11.730Z,99662.16
2024-05-09T20:44:57.400Z,99651.69
2024-05-09T20:47:42.915Z,99663.66
2024-05-09T20:50:36.900Z,99671.13
2024-05-09T20:53:26.007Z,99672.47
2024-05-09T20:56:11.607Z,99668.16
2024-05-09T20:58:59.992Z,99666.41
2024-05-09T21:01:49.259Z,99676.13
2024-05-09T21:04:35.279Z,99670.25
2024-05-09T21:07:21.301Z,99669.13
2024-05-09T21:10:15.250Z,99676.84
2024-05-09T21:13:06.625Z,99676.75
2024-05-09T21:15:52.935Z,99663.53
2024-05-09T21:18:38.991Z,99669.59
2024-05-09T21:21:24.703Z,99659.34
2024-05-09T21:24:10.099Z,99675.94
2024-05-09T21:26:55.651Z,99675.78
2024-05-09T21:29:41.254Z,99680.00
2024-05-09T21:32:26.834Z,99681.00
2024-05-09T21:35:12.814Z,99677.72
2024-05-09T21:37:58.324Z,99673.19
2024-05-09T21:40:44.971Z,99672.97
2024-05-09T21:43:31.670Z,99668.13
2024-05-09T21:46:17.413Z,99676.78
2024-05-09T21:49:03.334Z,99682.53
2024-05-09T21:51:49.983Z,99689.91
2024-05-09T21:54:35.767Z,99681.44
2024-05-09T21:57:22.139Z,99671.63
2024-05-09T22:00:25.154Z,99685.03
2024-05-09T22:03:18.371Z,99687.63
2024-05-09T22:06:04.227Z,99678.69
2024-05-09T22:08:49.717Z,99677.59
2024-05-09T22:11:35.107Z,99684.72
2024-05-09T22:14:21.386Z,99683.59
2024-05-09T22:17:07.009Z,99679.75
2024-05-09T22:19:53.380Z,99689.31
2024-05-09T22:22:39.091Z,99674.13
2024-05-09T22:25:26.031Z,99668.34
2024-05-09T22:28:15.750Z,99673.25
2024-05-09T22:31:01.785Z,99683.53
2024-05-09T22:33:48.246Z,99671.19
2024-05-09T22:36:34.439Z,99680.88
2024-05-09T22:39:20.325Z,99686.22
2024-05-09T22:42:05.761Z,99686.38
2024-05-09T22:44:51.406Z,99675.66
2024-05-09T22:47:37.410Z,99682.97
2024-05-09T22:50:26.959Z,99676.66
2024-05-09T22:53:16.583Z,99681.41
2024-05-09T22:56:02.603Z,99666.00
2024-05-09T22:58:48.459Z,99674.59
2024-05-09T23:01:34.066Z,99676.31
2024-05-09T23:04:20.294Z,99679.31
2024-05-09T23:07:07.358Z,99675.81
2024-05-09T23:09:53.328Z,99667.41
2024-05-09T23:12:39.708Z,99670.16
2024-05-09T23:15:25.630Z,99686.78
2024-05-09T23:18:11.580Z,99676.97
2024-05-09T23:20:57.402Z,99675.19
2024-05-09T23:23:42.683Z,99663.44
2024-05-09T23:26:28.328Z,99670.09
2024-05-09T23:29:13.869Z,99672.91
2024-05-09T23:31:59.877Z,99677.25
2024-05-09T23:34:45.991Z,99680.63
2024-05-09T23:37:31.969Z,99678.50
2024-05-09T23:40:19.118Z,99679.50
2024-05-09T23:43:12.687Z,99668.06
2024-05-09T23:45:59.046Z,99676.94
2024-05-09T23:48:45.087Z,99672.41
2024-05-09T23:51:31.182Z,99670.06
2024-05-09T23:54:17.233Z,99673.66
2024-05-09T23:57:02.626Z,99677.19
2024-05-09T23:59:49.527Z,99680.56
